ADDS METAR Data INFO
IDs: Format: Raw Decoded Include TAF

Data at: 0838 UTC 21 Oct 2017

KMYL 210751Z AUTO 00000KT 10SM BKN050 M01/M02 A2997 RMK AO2 SLP165 T10061017
KMYL 210651Z AUTO 00000KT 10SM SCT039 BKN046 BKN065 00/M02 A2995 RMK AO2 SLP160 T00001017 401331006
KMYL 210551Z AUTO 00000KT 10SM SCT007 BKN032 OVC080 00/M01 A2993 RMK AO2 UPB04E08SNB08E25 SLP153 P0001 60001 T00001011 10028 21006 51012
KMYL 210544Z AUTO 00000KT 10SM BKN007 BKN020 OVC080 00/M01 A2992 RMK AO2 UPB04E08SNB08E25 P0001 T00001011
KMYL 210532Z AUTO 13003KT 10SM FEW009 BKN019 OVC031 00/M01 A2992 RMK AO2 UPB04E08SNB08E25 P0001 T00001011
KMYL 210514Z AUTO 27003KT 3SM -SN BR SCT017 BKN024 OVC032 00/M01 A2992 RMK AO2 UPB04E08SNB08 P0001 T00001011
KMYL 210451Z AUTO 00000KT 10SM OVC037 00/M01 A2990 RMK AO2 SLP145 T00001011
KMYL 210351Z AUTO VRB03KT 10SM FEW016 BKN037 OVC046 00/M01 A2989 RMK AO2 SLP139 T00001011
KMYL 210251Z AUTO 00000KT 10SM FEW070 00/M02 A2987 RMK AO2 SLP134 T00001017 51017
KMYL 210151Z AUTO 00000KT 10SM FEW041 01/M01 A2986 RMK AO2 SLP128 T00061011
KMYL 210051Z AUTO 08003KT 10SM FEW055 FEW075 02/00 A2983 RMK AO2 SLP116 T00170000
KMYL 202351Z AUTO 14005KT 10SM CLR 03/M01 A2982 RMK AO2 SLP100 60000 T00281006 10033 20006 53018
KMYL 202251Z AUTO 19003KT 10SM BKN040 OVC055 03/M01 A2979 RMK AO2 SLP084 T00331006
KMYL 202151Z AUTO 13004KT 10SM FEW028 BKN037 OVC065 03/00 A2976 RMK AO2 UPB37E48 SLP074 P0000 T00280000
KMYL 202051Z AUTO 13004KT 10SM FEW029 SCT039 BKN046 02/M01 A2975 RMK AO2 UPB1955E21SNB05E11 SLP066 P0000 60000 T00221006 53020
KMYL 202030Z AUTO 21005KT 10SM SCT024 BKN032 OVC060 02/M01 A2974 RMK AO2 UPB1955E21SNB05E11 P0000 T00171006
KMYL 201951Z AUTO 26004KT 10SM BKN022 BKN027 OVC035 02/M01 A2973 RMK AO2 SNE1854 SLP059 P0000 T00221006
KMYL 201851Z AUTO 14009KT 6SM -SN BR BKN018 BKN026 OVC034 01/00 A2971 RMK AO2 SNE02B21 SLP052 P0000 T00060000
KMYL 201805Z AUTO 13007KT 9SM SCT009 BKN018 OVC034 01/00 A2969 RMK AO2 SNE02 P0000 T00060000
KMYL 201757Z AUTO 13006KT 5SM -SN BR SCT009 BKN012 OVC022 01/00 A2969 RMK AO2 P0000 T00060000
KMYL 201751Z AUTO 14005KT 2 1/2SM -SN BR BKN007 BKN013 OVC022 01/00 A2968 RMK AO2 SLP046 P0002 60037 T00060000 10044 20006 51018
KMYL 201747Z AUTO 15006KT 1 1/2SM -SN BR BKN007 BKN013 OVC020 01/00 A2968 RMK AO2 P0002
KMYL 201725Z AUTO 16003KT 1 1/2SM -SN BR SCT007 OVC014 01/00 A2968 RMK AO2 P0001 T00060000
KMYL 201704Z AUTO 24003KT 1SM -SN BR FEW007 OVC012 01/00 A2967 RMK AO2 P0000 T00060000
KMYL 201651Z AUTO 24007G15KT 3/4SM -SN BR VV012 01/M01 A2967 RMK AO2 SLP040 P0006 T00061006
KMYL 201619Z AUTO 24007KT 3/4SM -SN BR SCT005 OVC011 01/M01 A2964 RMK AO2 P0002 T00061006
KMYL 201612Z AUTO VRB05KT 1SM -SN BR BKN006 OVC011 01/00 A2964 RMK AO2 P0002 T00060000
KMYL 201551Z AUTO 00000KT 3/4SM -SN BR FEW004 OVC008 01/00 A2962 RMK AO2 SLP023 P0008 T00060000
KMYL 201508Z AUTO 00000KT 1/2SM SN FG VV008 01/00 A2960 RMK AO2 P0002 T00060000
KMYL 201500Z AUTO 00000KT 1SM -SN BR VV009 01/00 A2959 RMK AO2 P0001 T00060000
KMYL 201451Z AUTO 00000KT 1 1/4SM -SN BR OVC011 01/00 A2958 RMK AO2 SLP015 P0006 60021 T00060000 53026
KMYL 201441Z AUTO 23003KT 1SM -SN BR VV010 01/00 A2957 RMK AO2 P0005 T00060000
KMYL 201427Z AUTO 21003KT 2 1/2SM -SN BR OVC014 01/00 A2956 RMK AO2 P0003 T00060000
KMYL 201417Z AUTO 20004KT 2 1/2SM -SN BR OVC016 01/00 A2956 RMK AO2 P0002 T00060000
KMYL 201404Z AUTO 21004KT 4SM -SN BR OVC015 01/00 A2955 RMK AO2 P0001 T00060000
KMYL 201351Z AUTO 25004KT 4SM -SN BR OVC014 01/00 A2954 RMK AO2 SLP995 P0007 T00060000
KMYL 201343Z AUTO 27004KT 2 1/2SM -SN BR FEW007 OVC014 01/00 A2954 RMK AO2 P0006 T00060000
KMYL 201251Z AUTO 31006KT 3SM -SN BR FEW007 OVC011 01/00 A2953 RMK AO2 RAE32SNB32 SLP989 P0008 T00110000
KMYL 201220Z AUTO 26011G17KT 5SM RA BR BKN009 OVC016 03/02 A2952 RMK AO2 P0002 T00280017
KMYL 201202Z AUTO VRB05KT 9SM -RA BKN010 OVC033 04/03 A2950 RMK AO2 CIG 007V012 P0000 T00390028
KMYL 201151Z AUTO 25004KT 10SM -RA FEW010 OVC033 04/03 A2949 RMK AO2 RAB1053 SLP967 P0002 60002 70002 T00440028 10133 20044 53006
KMYL 201137Z AUTO 27008KT 10SM -RA FEW009 OVC033 04/03 A2949 RMK AO2 RAB1053 P0002 T00440028
KMYL 201122Z AUTO 29010G18KT 9SM -RA FEW008 BKN029 OVC036 05/04 A2949 RMK AO2 RAB1053 P0001 T00500039
KMYL 201103Z AUTO VRB04KT 10SM -RA BKN029 BKN038 OVC045 07/04 A2947 RMK AO2 RAB1053 P0000 T00720044
KMYL 201051Z AUTO 29010KT 10SM FEW030 BKN037 OVC048 08/04 A2947 RMK AO2 RAB08E34 SLP951 P0000 T00780044
KMYL 200951Z AUTO 14013G17KT 10SM BKN055 OVC070 09/03 A2947 RMK AO2 PK WND 18028/0913 RAB06E37 SLP949 P0000 T00940033
KMYL 200851Z AUTO 19010KT 10SM BKN070 OVC100 12/M01 A2947 RMK AO2 RAB42E51 SLP943 P0000 60000 T01221006 56023
KMYL 200751Z AUTO 16004KT 10SM BKN065 OVC090 11/M02 A2949 RMK AO2 SLP955 T01111022
KMYL 200651Z AUTO 16008KT 10SM SCT065 OVC095 13/M02 A2952 RMK AO2 SLP961 T01281022 401671011
KMYL 200551Z AUTO 14008KT 10SM CLR 12/M06 A2955 RMK AO2 SLP974 T01171056 10139 20083 56020
KMYL 200451Z AUTO 15006KT 10SM CLR 11/M09 A2957 RMK AO2 SLP991 T01111089
KMYL 200351Z AUTO 15006KT 10SM CLR 12/M10 A2959 RMK AO2 SLP005 T01221100
KMYL 200251Z AUTO 00000KT 10SM CLR 09/M07 A2962 RMK AO2 SLP028 T00941067 56019
KMYL 200151Z AUTO 15005KT 10SM CLR 12/M07 A2963 RMK AO2 SLP028 T01171072
KMYL 200051Z AUTO 19009KT 10SM CLR 12/M05 A2966 RMK AO2 SLP039 T01221050
KMYL 192351Z AUTO 16009KT 10SM CLR 14/M07 A2969 RMK AO2 SLP043 T01441067 10167 20139 58024
KMYL 192251Z AUTO 17010KT 10SM CLR 15/M06 A2972 RMK AO2 SLP055 T01501061
KMYL 192151Z AUTO 19014KT 10SM CLR 16/M06 A2975 RMK AO2 SLP060 T01611061
KMYL 192051Z AUTO 18011G20KT 10SM CLR 17/M06 A2977 RMK AO2 SLP066 T01671056 58021